sensor_id;sensor_type;location;lat;lon;timestamp;pressure;altitude;pressure_sealevel;temperature;humidity
62703;BME280;66022;50.448;18.122;2023-04-03T00:02:37;99756.92;;;3.26;86.10
62703;BME280;66022;50.448;18.122;2023-04-03T00:06:45;99758.58;;;3.25;85.27
62703;BME280;66022;50.448;18.122;2023-04-03T00:10:53;99760.05;;;3.25;84.54
62703;BME280;66022;50.448;18.122;2023-04-03T00:15:02;99762.29;;;3.23;84.09
62703;BME280;66022;50.448;18.122;2023-04-03T00:19:09;99763.45;;;3.19;84.40
62703;BME280;66022;50.448;18.122;2023-04-03T00:23:17;99764.00;;;3.17;83.97
62703;BME280;66022;50.448;18.122;2023-04-03T00:27:25;99766.18;;;3.12;85.20
62703;BME280;66022;50.448;18.122;2023-04-03T00:31:33;99767.69;;;3.09;83.55
62703;BME280;66022;50.448;18.122;2023-04-03T00:35:41;99769.42;;;3.06;83.70
62703;BME280;66022;50.448;18.122;2023-04-03T00:39:49;99772.47;;;3.01;84.14
62703;BME280;66022;50.448;18.122;2023-04-03T00:43:57;99774.94;;;2.98;83.20
62703;BME280;66022;50.448;18.122;2023-04-03T00:48:06;99777.42;;;2.94;84.21
62703;BME280;66022;50.448;18.122;2023-04-03T00:52:14;99779.30;;;2.91;83.68
62703;BME280;66022;50.448;18.122;2023-04-03T00:56:22;99782.76;;;2.87;83.48
62703;BME280;66022;50.448;18.122;2023-04-03T01:00:30;99784.61;;;2.82;83.90
62703;BME280;66022;50.448;18.122;2023-04-03T01:04:38;99787.25;;;2.78;83.52
62703;BME280;66022;50.448;18.122;2023-04-03T01:08:45;99790.50;;;2.72;84.12
62703;BME280;66022;50.448;18.122;2023-04-03T01:12:53;99792.60;;;2.70;83.32
62703;BME280;66022;50.448;18.122;2023-04-03T01:17:01;99795.48;;;2.64;83.62
62703;BME280;66022;50.448;18.122;2023-04-03T01:25:20;99796.61;;;2.57;83.25
62703;BME280;66022;50.448;18.122;2023-04-03T01:29:25;99796.34;;;2.52;83.67
62703;BME280;66022;50.448;18.122;2023-04-03T01:33:34;99796.73;;;2.51;83.00
62703;BME280;66022;50.448;18.122;2023-04-03T01:37:41;99797.19;;;2.48;83.71
62703;BME280;66022;50.448;18.122;2023-04-03T01:41:49;99799.34;;;2.48;82.66
62703;BME280;66022;50.448;18.122;2023-04-03T01:45:57;99801.01;;;2.45;82.20
62703;BME280;66022;50.448;18.122;2023-04-03T01:50:06;99804.02;;;2.42;82.32
62703;BME280;66022;50.448;18.122;2023-04-03T01:54:13;99805.52;;;2.38;82.21
62703;BME280;66022;50.448;18.122;2023-04-03T01:58:21;99806.81;;;2.32;83.20
62703;BME280;66022;50.448;18.122;2023-04-03T02:02:29;99808.89;;;2.27;81.94
62703;BME280;66022;50.448;18.122;2023-04-03T02:06:40;99809.49;;;2.20;81.85
62703;BME280;66022;50.448;18.122;2023-04-03T02:10:49;99810.50;;;2.13;81.83
62703;BME280;66022;50.448;18.122;2023-04-03T02:14:53;99812.21;;;2.08;82.21
62703;BME280;66022;50.448;18.122;2023-04-03T02:19:01;99813.55;;;2.00;82.80
62703;BME280;66022;50.448;18.122;2023-04-03T02:23:09;99815.70;;;1.96;82.31
62703;BME280;66022;50.448;18.122;2023-04-03T02:27:17;99816.83;;;1.87;83.63
62703;BME280;66022;50.448;18.122;2023-04-03T02:31:25;99819.89;;;1.83;81.75
62703;BME280;66022;50.448;18.122;2023-04-03T02:35:41;99822.38;;;1.79;81.67
62703;BME280;66022;50.448;18.122;2023-04-03T02:39:42;99825.66;;;1.74;81.96
62703;BME280;66022;50.448;18.122;2023-04-03T02:43:49;99829.42;;;1.71;81.51
62703;BME280;66022;50.448;18.122;2023-04-03T02:47:57;99832.98;;;1.65;82.88
62703;BME280;66022;50.448;18.122;2023-04-03T02:52:05;99837.28;;;1.61;82.15
62703;BME280;66022;50.448;18.122;2023-04-03T02:56:13;99841.33;;;1.56;82.01
62703;BME280;66022;50.448;18.122;2023-04-03T03:00:21;99845.22;;;1.50;82.17
62703;BME280;66022;50.448;18.122;2023-04-03T03:04:31;99847.83;;;1.44;81.83
62703;BME280;66022;50.448;18.122;2023-04-03T03:08:37;99851.53;;;1.37;82.86
62703;BME280;66022;50.448;18.122;2023-04-03T03:12:45;99855.33;;;1.32;82.24
62703;BME280;66022;50.448;18.122;2023-04-03T03:16:53;99859.28;;;1.24;83.87
62703;BME280;66022;50.448;18.122;2023-04-03T03:21:02;99862.05;;;1.20;82.82
62703;BME280;66022;50.448;18.122;2023-04-03T03:25:09;99865.46;;;1.14;82.73
62703;BME280;66022;50.448;18.122;2023-04-03T03:29:17;99867.67;;;1.06;83.17
62703;BME280;66022;50.448;18.122;2023-04-03T03:33:25;99870.54;;;1.02;82.57
62703;BME280;66022;50.448;18.122;2023-04-03T03:37:33;99873.13;;;0.96;85.01
62703;BME280;66022;50.448;18.122;2023-04-03T03:41:41;99874.53;;;0.93;82.74
62703;BME280;66022;50.448;18.122;2023-04-03T03:45:50;99876.25;;;0.89;82.99
62703;BME280;66022;50.448;18.122;2023-04-03T03:49:57;99878.88;;;0.85;83.55
62703;BME280;66022;50.448;18.122;2023-04-03T03:54:05;99881.38;;;0.83;83.31
62703;BME280;66022;50.448;18.122;2023-04-03T03:58:13;99883.47;;;0.77;84.79
62703;BME280;66022;50.448;18.122;2023-04-03T04:02:21;99885.44;;;0.74;83.50
62703;BME280;66022;50.448;18.122;2023-04-03T04:06:32;99887.32;;;0.70;83.56
62703;BME280;66022;50.448;18.122;2023-04-03T04:10:38;99888.95;;;0.66;84.45
62703;BME280;66022;50.448;18.122;2023-04-03T04:14:45;99892.28;;;0.62;83.92
62703;BME280;66022;50.448;18.122;2023-04-03T04:18:53;99896.50;;;0.56;84.89
62703;BME280;66022;50.448;18.122;2023-04-03T04:23:01;99898.83;;;0.53;84.38
62703;BME280;66022;50.448;18.122;2023-04-03T04:27:09;99902.31;;;0.45;87.04
62703;BME280;66022;50.448;18.122;2023-04-03T04:31:17;99905.88;;;0.42;84.74
62703;BME280;66022;50.448;18.122;2023-04-03T04:35:25;99908.00;;;0.38;84.59
62703;BME280;66022;50.448;18.122;2023-04-03T04:39:33;99910.41;;;0.33;85.35
62703;BME280;66022;50.448;18.122;2023-04-03T04:43:41;99913.58;;;0.31;84.73
62703;BME280;66022;50.448;18.122;2023-04-03T04:47:49;99916.36;;;0.27;86.86
62703;BME280;66022;50.448;18.122;2023-04-03T04:51:58;99920.28;;;0.26;84.69
62703;BME280;66022;50.448;18.122;2023-04-03T04:56:05;99923.36;;;0.24;84.84
62703;BME280;66022;50.448;18.122;2023-04-03T05:00:14;99926.20;;;0.22;84.99
62703;BME280;66022;50.448;18.122;2023-04-03T05:04:21;99929.71;;;0.23;84.90
62703;BME280;66022;50.448;18.122;2023-04-03T05:08:30;99932.19;;;0.23;85.98
62703;BME280;66022;50.448;18.122;2023-04-03T05:12:37;99936.10;;;0.27;84.46
62703;BME280;66022;50.448;18.122;2023-04-03T05:16:45;99939.14;;;0.29;84.85
62703;BME280;66022;50.448;18.122;2023-04-03T05:20:53;99942.64;;;0.33;84.14
62703;BME280;66022;50.448;18.122;2023-04-03T05:25:01;99946.19;;;0.38;83.67
62703;BME280;66022;50.448;18.122;2023-04-03T05:29:09;99949.36;;;0.42;84.34
62703;BME280;66022;50.448;18.122;2023-04-03T05:33:17;99952.15;;;0.51;82.72
62703;BME280;66022;50.448;18.122;2023-04-03T05:37:25;99955.83;;;0.57;84.80
62703;BME280;66022;50.448;18.122;2023-04-03T05:41:33;99958.64;;;0.68;81.99
62703;BME280;66022;50.448;18.122;2023-04-03T05:45:42;99961.80;;;0.78;81.69
62703;BME280;66022;50.448;18.122;2023-04-03T05:49:49;99965.13;;;0.88;81.36
62703;BME280;66022;50.448;18.122;2023-04-03T05:54:03;99968.55;;;1.00;80.87
62703;BME280;66022;50.448;18.122;2023-04-03T05:58:05;99971.75;;;1.11;81.00
62703;BME280;66022;50.448;18.122;2023-04-03T06:02:17;99973.93;;;1.25;80.16
62703;BME280;66022;50.448;18.122;2023-04-03T06:06:21;99976.92;;;1.37;79.36
62703;BME280;66022;50.448;18.122;2023-04-03T06:10:29;99978.88;;;1.50;79.07
62703;BME280;66022;50.448;18.122;2023-04-03T06:14:38;99980.49;;;1.64;78.30
62703;BME280;66022;50.448;18.122;2023-04-03T06:18:45;99983.56;;;1.78;78.15
62703;BME280;66022;50.448;18.122;2023-04-03T06:22:53;99986.74;;;1.92;77.03
62703;BME280;66022;50.448;18.122;2023-04-03T06:27:01;99988.28;;;2.01;78.10
62703;BME280;66022;50.448;18.122;2023-04-03T06:31:09;99989.76;;;2.16;76.72
62703;BME280;66022;50.448;18.122;2023-04-03T06:35:20;99990.02;;;2.30;76.99
62703;BME280;66022;50.448;18.122;2023-04-03T06:39:25;99992.14;;;2.43;75.41
62703;BME280;66022;50.448;18.122;2023-04-03T06:43:33;99993.30;;;2.65;74.29
62703;BME280;66022;50.448;18.122;2023-04-03T06:47:41;99995.45;;;2.98;71.14
62703;BME280;66022;50.448;18.122;2023-04-03T06:51:57;99995.67;;;3.48;68.02
62703;BME280;66022;50.448;18.122;2023-04-03T06:56:00;99997.27;;;4.09;65.66
62703;BME280;66022;50.448;18.122;2023-04-03T07:00:10;100000.17;;;4.65;62.89
62703;BME280;66022;50.448;18.122;2023-04-03T07:04:13;100002.33;;;5.16;62.34
62703;BME280;66022;50.448;18.122;2023-04-03T07:08:22;100006.39;;;5.63;61.28
62703;BME280;66022;50.448;18.122;2023-04-03T07:12:29;100009.05;;;6.04;60.49
62703;BME280;66022;50.448;18.122;2023-04-03T07:16:37;100012.10;;;6.42;61.24
62703;BME280;66022;50.448;18.122;2023-04-03T07:20:45;100015.38;;;6.77;62.04
62703;BME280;66022;50.448;18.122;2023-04-03T07:24:53;100018.91;;;7.12;61.44
62703;BME280;66022;50.448;18.122;2023-04-03T07:29:01;100021.74;;;7.34;60.14
62703;BME280;66022;50.448;18.122;2023-04-03T07:33:09;100024.98;;;7.63;60.13
62703;BME280;66022;50.448;18.122;2023-04-03T07:37:17;100027.78;;;7.77;57.88
62703;BME280;66022;50.448;18.122;2023-04-03T07:41:25;100029.96;;;8.04;59.76
62703;BME280;66022;50.448;18.122;2023-04-03T07:45:36;100032.39;;;8.32;58.71
62703;BME280;66022;50.448;18.122;2023-04-03T07:49:42;100031.58;;;8.52;57.07
62703;BME280;66022;50.448;18.122;2023-04-03T07:53:50;100031.41;;;8.78;55.92
62703;BME280;66022;50.448;18.122;2023-04-03T07:57:57;100031.20;;;8.99;57.77
62703;BME280;66022;50.448;18.122;2023-04-03T08:02:07;100031.94;;;9.23;56.17
62703;BME280;66022;50.448;18.122;2023-04-03T08:06:13;100031.86;;;9.42;57.10
62703;BME280;66022;50.448;18.122;2023-04-03T08:10:21;100033.12;;;9.57;54.54
62703;BME280;66022;50.448;18.122;2023-04-03T08:14:33;100033.80;;;9.71;56.42
62703;BME280;66022;50.448;18.122;2023-04-03T08:18:38;100034.80;;;9.71;55.48
62703;BME280;66022;50.448;18.122;2023-04-03T08:22:45;100034.48;;;9.67;55.80
62703;BME280;66022;50.448;18.122;2023-04-03T08:26:53;100033.34;;;9.60;53.69
62703;BME280;66022;50.448;18.122;2023-04-03T08:31:05;100033.39;;;9.56;56.17
62703;BME280;66022;50.448;18.122;2023-04-03T08:35:09;100034.78;;;9.42;54.43
62703;BME280;66022;50.448;18.122;2023-04-03T08:39:17;100036.60;;;9.15;52.75
62703;BME280;66022;50.448;18.122;2023-04-03T08:51:41;100041.68;;;8.40;54.04
62703;BME280;66022;50.448;18.122;2023-04-03T08:55:50;100042.77;;;8.07;58.53
62703;BME280;66022;50.448;18.122;2023-04-03T08:59:58;100045.22;;;7.69;56.05
62703;BME280;66022;50.448;18.122;2023-04-03T09:04:10;100047.67;;;7.44;58.97
62703;BME280;66022;50.448;18.122;2023-04-03T09:12:25;100048.00;;;7.01;56.44
62703;BME280;66022;50.448;18.122;2023-04-03T09:24:45;100047.19;;;6.48;56.18
62703;BME280;66022;50.448;18.122;2023-04-03T09:28:54;100045.73;;;6.42;55.23
62703;BME280;66022;50.448;18.122;2023-04-03T09:33:01;100045.11;;;6.59;55.31
62703;BME280;66022;50.448;18.122;2023-04-03T09:37:09;100046.12;;;6.63;53.07
62703;BME280;66022;50.448;18.122;2023-04-03T09:41:17;100047.71;;;6.63;54.07
62703;BME280;66022;50.448;18.122;2023-04-03T09:45:35;100048.30;;;6.79;51.51
62703;BME280;66022;50.448;18.122;2023-04-03T09:49:33;100051.03;;;6.88;53.75
62703;BME280;66022;50.448;18.122;2023-04-03T09:53:42;100052.59;;;6.98;53.76
62703;BME280;66022;50.448;18.122;2023-04-03T09:57:49;100054.92;;;7.14;46.19
62703;BME280;66022;50.448;18.122;2023-04-03T10:02:21;100055.74;;;7.36;48.82
62703;BME280;66022;50.448;18.122;2023-04-03T10:06:21;100056.89;;;7.48;47.07
62703;BME280;66022;50.448;18.122;2023-04-03T10:10:18;100059.05;;;7.44;46.97
62703;BME280;66022;50.448;18.122;2023-04-03T10:14:21;100061.38;;;7.45;44.53
62703;BME280;66022;50.448;18.122;2023-04-03T10:18:32;100062.66;;;7.48;45.04
62703;BME280;66022;50.448;18.122;2023-04-03T10:26:49;100065.37;;;7.58;45.34
62703;BME280;66022;50.448;18.122;2023-04-03T10:35:50;100066.06;;;7.43;48.96
62703;BME280;66022;50.448;18.122;2023-04-03T10:43:20;100064.65;;;7.46;46.95
62703;BME280;66022;50.448;18.122;2023-04-03T10:55:43;100065.30;;;7.03;49.04
62703;BME280;66022;50.448;18.122;2023-04-03T10:59:50;100065.09;;;7.13;50.12
62703;BME280;66022;50.448;18.122;2023-04-03T11:03:58;100065.61;;;7.35;48.61
62703;BME280;66022;50.448;18.122;2023-04-03T11:08:15;100065.80;;;7.34;48.45
62703;BME280;66022;50.448;18.122;2023-04-03T11:16:26;100065.49;;;7.46;49.02
62703;BME280;66022;50.448;18.122;2023-04-03T11:20:30;100062.92;;;7.51;48.97
62703;BME280;66022;50.448;18.122;2023-04-03T11:24:38;100062.81;;;7.48;45.91
62703;BME280;66022;50.448;18.122;2023-04-03T11:28:46;100062.42;;;7.51;46.74
62703;BME280;66022;50.448;18.122;2023-04-03T11:37:03;100062.05;;;7.64;44.08
62703;BME280;66022;50.448;18.122;2023-04-03T11:41:10;100058.56;;;7.84;44.75
62703;BME280;66022;50.448;18.122;2023-04-03T11:53:34;100053.67;;;7.62;47.09
62703;BME280;66022;50.448;18.122;2023-04-03T11:57:46;100052.27;;;7.44;44.99
62703;BME280;66022;50.448;18.122;2023-04-03T12:01:51;100046.66;;;7.40;42.60
62703;BME280;66022;50.448;18.122;2023-04-03T12:10:14;100041.09;;;7.21;47.47
62703;BME280;66022;50.448;18.122;2023-04-03T12:14:16;100041.87;;;7.10;47.76
62703;BME280;66022;50.448;18.122;2023-04-03T12:22:30;100041.17;;;6.87;47.17
62703;BME280;66022;50.448;18.122;2023-04-03T12:26:41;100040.12;;;6.81;46.74
62703;BME280;66022;50.448;18.122;2023-04-03T12:30:46;100036.95;;;6.80;49.85
62703;BME280;66022;50.448;18.122;2023-04-03T12:47:27;100034.68;;;6.64;46.07
62703;BME280;66022;50.448;18.122;2023-04-03T12:55:34;100032.42;;;6.61;46.24
62703;BME280;66022;50.448;18.122;2023-04-03T12:59:42;100031.37;;;6.53;46.05
62703;BME280;66022;50.448;18.122;2023-04-03T13:03:52;100028.56;;;6.57;47.16
62703;BME280;66022;50.448;18.122;2023-04-03T13:07:59;100025.89;;;6.57;45.81
62703;BME280;66022;50.448;18.122;2023-04-03T13:16:15;100022.81;;;6.49;46.97
62703;BME280;66022;50.448;18.122;2023-04-03T13:24:34;100020.03;;;6.45;47.31
62703;BME280;66022;50.448;18.122;2023-04-03T13:28:38;100017.89;;;6.51;47.03
62703;BME280;66022;50.448;18.122;2023-04-03T13:32:46;100016.14;;;6.61;46.36
62703;BME280;66022;50.448;18.122;2023-04-03T13:36:55;100015.98;;;6.64;44.33
62703;BME280;66022;50.448;18.122;2023-04-03T13:41:20;100014.09;;;6.69;47.42
62703;BME280;66022;50.448;18.122;2023-04-03T13:53:26;100010.97;;;6.81;47.68
62703;BME280;66022;50.448;18.122;2023-04-03T13:57:34;100008.48;;;6.80;48.10
62703;BME280;66022;50.448;18.122;2023-04-03T14:05:50;100007.36;;;6.74;45.36
62703;BME280;66022;50.448;18.122;2023-04-03T14:09:58;100007.89;;;6.63;49.49
62703;BME280;66022;50.448;18.122;2023-04-03T14:18:15;100005.35;;;6.60;46.85
62703;BME280;66022;50.448;18.122;2023-04-03T14:22:26;100005.64;;;6.55;45.96
62703;BME280;66022;50.448;18.122;2023-04-03T14:26:30;100005.75;;;6.46;46.83
62703;BME280;66022;50.448;18.122;2023-04-03T14:30:38;100004.25;;;6.42;48.32
62703;BME280;66022;50.448;18.122;2023-04-03T14:34:46;100006.30;;;6.38;44.87
62703;BME280;66022;50.448;18.122;2023-04-03T14:38:54;100007.28;;;6.25;48.28
62703;BME280;66022;50.448;18.122;2023-04-03T14:43:02;100008.90;;;6.17;44.58
62703;BME280;66022;50.448;18.122;2023-04-03T14:47:13;100010.44;;;6.11;50.28
62703;BME280;66022;50.448;18.122;2023-04-03T14:51:18;100009.91;;;6.16;50.45
62703;BME280;66022;50.448;18.122;2023-04-03T14:55:26;100010.92;;;6.18;47.33
62703;BME280;66022;50.448;18.122;2023-04-03T14:59:34;100014.38;;;6.12;48.53
62703;BME280;66022;50.448;18.122;2023-04-03T15:03:42;100017.66;;;6.05;48.93
62703;BME280;66022;50.448;18.122;2023-04-03T15:07:52;100019.45;;;5.94;48.25
62703;BME280;66022;50.448;18.122;2023-04-03T15:11:58;100020.04;;;5.86;49.45
62703;BME280;66022;50.448;18.122;2023-04-03T15:16:11;100022.03;;;5.75;48.35
62703;BME280;66022;50.448;18.122;2023-04-03T15:20:18;100023.65;;;5.62;48.60
62703;BME280;66022;50.448;18.122;2023-04-03T15:24:22;100025.62;;;5.51;48.00
62703;BME280;66022;50.448;18.122;2023-04-03T15:28:33;100028.03;;;5.36;47.11
62703;BME280;66022;50.448;18.122;2023-04-03T15:32:38;100030.24;;;5.25;47.74
62703;BME280;66022;50.448;18.122;2023-04-03T15:36:46;100031.67;;;5.12;47.35
62703;BME280;66022;50.448;18.122;2023-04-03T15:40:54;100031.83;;;5.04;49.55
62703;BME280;66022;50.448;18.122;2023-04-03T15:45:02;100031.17;;;4.98;50.51
62703;BME280;66022;50.448;18.122;2023-04-03T15:49:10;100031.74;;;4.90;50.59
62703;BME280;66022;50.448;18.122;2023-04-03T15:53:18;100036.75;;;4.85;48.39
62703;BME280;66022;50.448;18.122;2023-04-03T15:57:26;100041.78;;;4.76;48.61
62703;BME280;66022;50.448;18.122;2023-04-03T16:01:34;100044.12;;;4.71;48.62
62703;BME280;66022;50.448;18.122;2023-04-03T16:05:42;100045.51;;;4.62;47.64
62703;BME280;66022;50.448;18.122;2023-04-03T16:09:54;100047.04;;;4.53;51.25
62703;BME280;66022;50.448;18.122;2023-04-03T16:14:01;100047.78;;;4.48;50.73
62703;BME280;66022;50.448;18.122;2023-04-03T16:18:08;100047.56;;;4.44;50.83
62703;BME280;66022;50.448;18.122;2023-04-03T16:22:15;100049.56;;;4.44;53.50
62703;BME280;66022;50.448;18.122;2023-04-03T16:26:24;100052.47;;;4.45;51.72
62703;BME280;66022;50.448;18.122;2023-04-03T16:30:32;100053.94;;;4.42;51.46
62703;BME280;66022;50.448;18.122;2023-04-03T16:34:39;100056.55;;;4.39;52.26
62703;BME280;66022;50.448;18.122;2023-04-03T16:38:47;100059.74;;;4.34;51.87
62703;BME280;66022;50.448;18.122;2023-04-03T16:42:55;100061.89;;;4.29;53.06
62703;BME280;66022;50.448;18.122;2023-04-03T16:47:03;100064.48;;;4.20;51.04
62703;BME280;66022;50.448;18.122;2023-04-03T16:51:12;100066.13;;;4.14;52.05
62703;BME280;66022;50.448;18.122;2023-04-03T16:55:19;100067.13;;;4.09;52.33
62703;BME280;66022;50.448;18.122;2023-04-03T16:59:30;100070.01;;;4.02;51.94
62703;BME280;66022;50.448;18.122;2023-04-03T17:03:35;100072.28;;;3.98;51.24
62703;BME280;66022;50.448;18.122;2023-04-03T17:07:43;100074.65;;;3.92;51.52
62703;BME280;66022;50.448;18.122;2023-04-03T17:11:52;100077.32;;;3.87;55.06
62703;BME280;66022;50.448;18.122;2023-04-03T17:15:59;100080.25;;;3.83;53.16
62703;BME280;66022;50.448;18.122;2023-04-03T17:20:07;100080.89;;;3.78;52.15
62703;BME280;66022;50.448;18.122;2023-04-03T17:24:15;100081.98;;;3.74;53.05
62703;BME280;66022;50.448;18.122;2023-04-03T17:28:23;100084.08;;;3.70;52.17
62703;BME280;66022;50.448;18.122;2023-04-03T17:32:32;100085.88;;;3.68;52.22
62703;BME280;66022;50.448;18.122;2023-04-03T17:36:39;100088.00;;;3.66;52.86
62703;BME280;66022;50.448;18.122;2023-04-03T17:40:48;100091.13;;;3.65;53.21
62703;BME280;66022;50.448;18.122;2023-04-03T17:44:56;100094.03;;;3.65;53.54
62703;BME280;66022;50.448;18.122;2023-04-03T17:49:04;100096.83;;;3.60;52.28
62703;BME280;66022;50.448;18.122;2023-04-03T17:53:14;100100.03;;;3.58;51.49
62703;BME280;66022;50.448;18.122;2023-04-03T17:57:20;100101.67;;;3.52;53.21
62703;BME280;66022;50.448;18.122;2023-04-03T18:01:29;100103.55;;;3.50;53.81
62703;BME280;66022;50.448;18.122;2023-04-03T18:05:36;100104.17;;;3.48;54.24
62703;BME280;66022;50.448;18.122;2023-04-03T18:09:43;100104.85;;;3.44;55.17
62703;BME280;66022;50.448;18.122;2023-04-03T18:13:51;100107.17;;;3.44;55.01
62703;BME280;66022;50.448;18.122;2023-04-03T18:18:00;100108.09;;;3.41;54.31
62703;BME280;66022;50.448;18.122;2023-04-03T18:22:10;100109.84;;;3.41;55.54
62703;BME280;66022;50.448;18.122;2023-04-03T18:26:16;100111.41;;;3.40;55.73
62703;BME280;66022;50.448;18.122;2023-04-03T18:30:23;100113.83;;;3.38;55.56
62703;BME280;66022;50.448;18.122;2023-04-03T18:34:31;100116.20;;;3.35;56.22
62703;BME280;66022;50.448;18.122;2023-04-03T18:38:42;100119.53;;;3.32;56.30
62703;BME280;66022;50.448;18.122;2023-04-03T18:42:48;100121.51;;;3.30;55.96
62703;BME280;66022;50.448;18.122;2023-04-03T18:46:55;100123.65;;;3.26;55.68
62703;BME280;66022;50.448;18.122;2023-04-03T18:51:05;100126.37;;;3.25;56.51
62703;BME280;66022;50.448;18.122;2023-04-03T18:55:11;100127.64;;;3.23;57.31
62703;BME280;66022;50.448;18.122;2023-04-03T18:59:20;100127.69;;;3.17;56.99
62703;BME280;66022;50.448;18.122;2023-04-03T19:03:31;100128.47;;;3.17;57.65
62703;BME280;66022;50.448;18.122;2023-04-03T19:07:36;100129.60;;;3.16;57.42
62703;BME280;66022;50.448;18.122;2023-04-03T19:11:43;100129.17;;;3.20;57.79
62703;BME280;66022;50.448;18.122;2023-04-03T19:15:51;100127.25;;;3.23;58.95
62703;BME280;66022;50.448;18.122;2023-04-03T19:19:59;100125.10;;;3.24;58.52
62703;BME280;66022;50.448;18.122;2023-04-03T19:24:11;100123.47;;;3.26;57.56
62703;BME280;66022;50.448;18.122;2023-04-03T19:28:15;100122.03;;;3.24;58.91
62703;BME280;66022;50.448;18.122;2023-04-03T19:32:23;100120.53;;;3.24;58.92
62703;BME280;66022;50.448;18.122;2023-04-03T19:36:32;100119.33;;;3.23;59.10
62703;BME280;66022;50.448;18.122;2023-04-03T19:40:39;100120.12;;;3.20;59.08
62703;BME280;66022;50.448;18.122;2023-04-03T19:44:47;100121.41;;;3.18;59.22
62703;BME280;66022;50.448;18.122;2023-04-03T19:48:55;100122.66;;;3.14;59.77
62703;BME280;66022;50.448;18.122;2023-04-03T19:53:03;100122.41;;;3.14;60.90
62703;BME280;66022;50.448;18.122;2023-04-03T19:57:11;100121.95;;;3.09;62.84
62703;BME280;66022;50.448;18.122;2023-04-03T20:01:22;100121.95;;;3.09;62.89
62703;BME280;66022;50.448;18.122;2023-04-03T20:05:27;100121.20;;;3.08;63.04
62703;BME280;66022;50.448;18.122;2023-04-03T20:09:35;100119.97;;;3.05;63.14
62703;BME280;66022;50.448;18.122;2023-04-03T20:13:43;100118.88;;;3.05;63.30
62703;BME280;66022;50.448;18.122;2023-04-03T20:17:51;100119.05;;;3.01;62.46
62703;BME280;66022;50.448;18.122;2023-04-03T20:21:59;100120.26;;;2.99;61.98
62703;BME280;66022;50.448;18.122;2023-04-03T20:26:07;100121.67;;;2.96;61.80
62703;BME280;66022;50.448;18.122;2023-04-03T20:34:26;100125.14;;;2.80;62.77
62703;BME280;66022;50.448;18.122;2023-04-03T20:38:31;100126.05;;;2.72;62.92
62703;BME280;66022;50.448;18.122;2023-04-03T20:42:39;100125.72;;;2.69;62.08
62703;BME280;66022;50.448;18.122;2023-04-03T20:46:49;100125.59;;;2.65;61.10
62703;BME280;66022;50.448;18.122;2023-04-03T20:51:04;100126.58;;;2.61;61.53
62703;BME280;66022;50.448;18.122;2023-04-03T20:55:07;100127.70;;;2.59;60.39
62703;BME280;66022;50.448;18.122;2023-04-03T20:59:16;100128.97;;;2.53;61.17
62703;BME280;66022;50.448;18.122;2023-04-03T21:03:19;100130.00;;;2.54;60.62
62703;BME280;66022;50.448;18.122;2023-04-03T21:19:52;100138.35;;;2.40;61.12
62703;BME280;66022;50.448;18.122;2023-04-03T21:24:00;100140.44;;;2.33;60.77
62703;BME280;66022;50.448;18.122;2023-04-03T21:28:08;100142.08;;;2.23;61.43
62703;BME280;66022;50.448;18.122;2023-04-03T21:32:15;100142.13;;;2.15;62.10
62703;BME280;66022;50.448;18.122;2023-04-03T21:36:23;100143.05;;;2.06;61.92
62703;BME280;66022;50.448;18.122;2023-04-03T21:40:33;100143.30;;;1.97;62.50
62703;BME280;66022;50.448;18.122;2023-04-03T21:44:39;100144.02;;;1.89;62.44
62703;BME280;66022;50.448;18.122;2023-04-03T21:48:47;100144.22;;;1.81;63.80
62703;BME280;66022;50.448;18.122;2023-04-03T21:52:55;100144.35;;;1.74;63.50
62703;BME280;66022;50.448;18.122;2023-04-03T21:57:03;100145.32;;;1.64;65.04
62703;BME280;66022;50.448;18.122;2023-04-03T22:01:12;100145.20;;;1.57;64.65
62703;BME280;66022;50.448;18.122;2023-04-03T22:09:27;100144.48;;;1.41;64.62
62703;BME280;66022;50.448;18.122;2023-04-03T22:13:38;100143.13;;;1.36;65.00
62703;BME280;66022;50.448;18.122;2023-04-03T22:17:43;100142.08;;;1.29;66.12
62703;BME280;66022;50.448;18.122;2023-04-03T22:21:51;100139.97;;;1.24;64.91
62703;BME280;66022;50.448;18.122;2023-04-03T22:30:10;100137.82;;;1.13;65.68
62703;BME280;66022;50.448;18.122;2023-04-03T22:34:20;100137.83;;;1.09;65.81
62703;BME280;66022;50.448;18.122;2023-04-03T22:38:23;100137.49;;;1.02;66.98
62703;BME280;66022;50.448;18.122;2023-04-03T22:42:31;100137.87;;;0.98;66.29
62703;BME280;66022;50.448;18.122;2023-04-03T22:46:39;100137.37;;;0.93;66.03
62703;BME280;66022;50.448;18.122;2023-04-03T22:50:47;100134.97;;;0.88;66.23
62703;BME280;66022;50.448;18.122;2023-04-03T22:54:55;100132.19;;;0.83;66.61
62703;BME280;66022;50.448;18.122;2023-04-03T22:59:03;100129.97;;;0.75;66.22
62703;BME280;66022;50.448;18.122;2023-04-03T23:03:11;100126.59;;;0.71;66.79
62703;BME280;66022;50.448;18.122;2023-04-03T23:07:19;100124.69;;;0.63;68.66
62703;BME280;66022;50.448;18.122;2023-04-03T23:11:27;100121.77;;;0.59;67.23
62703;BME280;66022;50.448;18.122;2023-04-03T23:15:35;100120.20;;;0.54;67.48
62703;BME280;66022;50.448;18.122;2023-04-03T23:19:43;100119.02;;;0.49;68.44
62703;BME280;66022;50.448;18.122;2023-04-03T23:23:51;100116.00;;;0.44;68.06
62703;BME280;66022;50.448;18.122;2023-04-03T23:27:59;100113.40;;;0.38;69.06
62703;BME280;66022;50.448;18.122;2023-04-03T23:32:07;100110.47;;;0.34;68.38
62703;BME280;66022;50.448;18.122;2023-04-03T23:36:15;100105.30;;;0.28;68.92
62703;BME280;66022;50.448;18.122;2023-04-03T23:40:23;100099.65;;;0.22;69.35
62703;BME280;66022;50.448;18.122;2023-04-03T23:44:31;100094.84;;;0.16;69.41
62703;BME280;66022;50.448;18.122;2023-04-03T23:48:39;100090.34;;;0.10;69.96
62703;BME280;66022;50.448;18.122;2023-04-03T23:52:47;100087.02;;;0.05;69.71
62703;BME280;66022;50.448;18.122;2023-04-03T23:56:55;100083.06;;;-0.03;71.31
